createdAt,value
2022-12-15T00:02:58.923Z,59.90
2022-12-15T00:06:00.619Z,61.40
2022-12-15T00:09:03.517Z,60.40
2022-12-15T00:12:05.275Z,62.60
2022-12-15T00:15:07.950Z,61.80
2022-12-15T00:18:12.496Z,60.90
2022-12-15T00:21:18.055Z,62.10
2022-12-15T00:24:19.328Z,61.00
2022-12-15T00:27:20.912Z,61.60
2022-12-15T00:30:24.933Z,54.90
2022-12-15T00:33:30.976Z,60.20
2022-12-15T00:36:33.021Z,55.00
2022-12-15T00:39:15.928Z,56.70
2022-12-15T00:44:41.577Z,57.90
2022-12-15T00:50:26.387Z,53.60
2022-12-15T00:53:28.306Z,54.90
2022-12-15T00:56:29.933Z,55.80
2022-12-15T00:59:32.653Z,57.30
2022-12-15T01:02:34.279Z,57.50
2022-12-15T01:05:35.924Z,55.10
2022-12-15T01:08:37.236Z,54.50
2022-12-15T01:11:38.866Z,54.40
2022-12-15T01:14:41.294Z,54.20
2022-12-15T01:17:43.233Z,53.80
2022-12-15T01:20:26.323Z,52.60
2022-12-15T01:23:09.080Z,54.50
2022-12-15T01:25:52.921Z,54.80
2022-12-15T01:28:36.565Z,55.90
2022-12-15T01:31:19.432Z,56.60
2022-12-15T01:36:44.878Z,52.70
2022-12-15T01:39:47.711Z,55.00
2022-12-15T01:42:31.439Z,52.20
2022-12-15T01:45:29.703Z,57.10
2022-12-15T01:48:17.824Z,52.30
2022-12-15T01:51:06.080Z,57.90
2022-12-15T01:54:10.068Z,58.10
2022-12-15T01:56:59.632Z,56.10
2022-12-15T01:59:50.900Z,58.00
2022-12-15T02:02:40.236Z,64.10
2022-12-15T02:05:28.483Z,58.10
2022-12-15T02:08:13.920Z,56.50
2022-12-15T02:11:19.265Z,58.80
2022-12-15T02:14:09.388Z,55.20
2022-12-15T02:17:23.052Z,53.90
2022-12-15T02:20:26.944Z,57.40
2022-12-15T02:23:23.121Z,56.80
2022-12-15T02:26:25.461Z,56.40
2022-12-15T02:29:18.018Z,57.00
2022-12-15T02:32:10.489Z,59.90
2022-12-15T02:34:56.219Z,55.10
2022-12-15T02:37:40.984Z,56.90
2022-12-15T02:40:23.884Z,52.20
2022-12-15T02:46:28.085Z,53.80
2022-12-15T02:49:37.177Z,57.00
2022-12-15T02:52:48.167Z,54.10
2022-12-15T02:55:46.741Z,54.90
2022-12-15T02:59:03.757Z,60.00
2022-12-15T03:01:56.698Z,57.20
2022-12-15T03:04:42.675Z,59.40
2022-12-15T03:07:28.610Z,58.90
2022-12-15T03:10:15.312Z,59.40
2022-12-15T03:12:59.240Z,58.20
2022-12-15T03:15:44.191Z,56.70
2022-12-15T03:18:27.230Z,58.30
2022-12-15T03:21:10.286Z,57.30
2022-12-15T03:23:54.133Z,57.90
2022-12-15T03:26:37.963Z,58.20
2022-12-15T03:29:21.101Z,57.00
2022-12-15T03:32:04.297Z,54.30
2022-12-15T03:34:47.216Z,56.10
2022-12-15T03:40:14.086Z,55.60
2022-12-15T03:42:58.160Z,50.80
2022-12-15T03:45:41.070Z,54.40
2022-12-15T03:48:23.969Z,55.90
2022-12-15T03:54:17.728Z,53.00
2022-12-15T03:57:01.665Z,56.50
2022-12-15T03:59:44.591Z,54.00
2022-12-15T04:08:00.447Z,54.70
2022-12-15T04:10:43.706Z,53.80
2022-12-15T04:13:29.158Z,52.10
2022-12-15T04:16:17.826Z,51.60
2022-12-15T04:19:22.370Z,55.80
2022-12-15T04:22:05.340Z,53.20
2022-12-15T04:25:10.382Z,54.70
2022-12-15T04:28:13.641Z,50.10
2022-12-15T04:34:25.329Z,53.50
2022-12-15T04:37:32.515Z,53.80
2022-12-15T04:40:34.544Z,53.10
2022-12-15T04:43:36.213Z,55.10
2022-12-15T04:46:37.657Z,54.60
2022-12-15T04:49:40.247Z,56.70
2022-12-15T04:52:42.083Z,55.20
2022-12-15T04:55:43.818Z,56.90
2022-12-15T04:58:45.194Z,54.10
2022-12-15T05:01:50.761Z,53.60
2022-12-15T05:04:52.709Z,52.10
2022-12-15T05:07:54.481Z,50.30
2022-12-15T05:10:55.939Z,52.80
2022-12-15T05:13:58.665Z,55.00
2022-12-15T05:17:00.195Z,54.80
2022-12-15T05:20:28.449Z,51.40
2022-12-15T05:23:30.475Z,52.30
2022-12-15T05:26:32.320Z,52.40
2022-12-15T05:29:37.284Z,51.90
2022-12-15T05:32:20.221Z,56.60
2022-12-15T05:37:45.885Z,54.00
2022-12-15T05:40:28.698Z,57.00
2022-12-15T05:43:23.028Z,60.80
2022-12-15T05:46:11.233Z,60.90
2022-12-15T05:48:57.419Z,62.10
2022-12-15T05:51:41.546Z,62.30
2022-12-15T05:54:25.575Z,63.20
2022-12-15T05:57:08.740Z,62.00
2022-12-15T05:59:53.687Z,56.40
2022-12-15T06:02:38.134Z,57.30
2022-12-15T06:05:25.369Z,56.60
2022-12-15T06:08:09.154Z,53.10
2022-12-15T06:10:55.021Z,56.70
2022-12-15T06:13:38.504Z,53.80
2022-12-15T06:16:30.444Z,54.90
2022-12-15T06:19:17.651Z,54.20
2022-12-15T06:22:00.872Z,54.50
2022-12-15T06:24:47.468Z,55.10
2022-12-15T06:27:32.128Z,60.60
2022-12-15T06:30:16.288Z,58.30
2022-12-15T06:33:00.367Z,56.90
2022-12-15T06:35:43.247Z,59.30
2022-12-15T06:41:14.679Z,57.40
2022-12-15T06:43:58.430Z,61.40
2022-12-15T06:46:41.810Z,63.50
2022-12-15T06:49:25.693Z,64.40
2022-12-15T06:52:09.591Z,70.10
2022-12-15T06:54:52.458Z,64.20
2022-12-15T06:57:36.767Z,65.20
2022-12-15T07:00:21.668Z,67.80
2022-12-15T07:03:13.328Z,71.30
2022-12-15T07:06:05.590Z,71.90
2022-12-15T07:08:52.599Z,74.70
2022-12-15T07:11:35.569Z,75.20
2022-12-15T07:14:18.509Z,65.00
2022-12-15T07:19:44.386Z,61.30
2022-12-15T07:25:39.014Z,56.20
2022-12-15T07:28:25.907Z,59.80
2022-12-15T07:31:11.251Z,57.20
2022-12-15T07:33:59.425Z,59.50
2022-12-15T07:36:48.487Z,62.60
2022-12-15T07:39:36.720Z,62.20
2022-12-15T07:42:23.246Z,66.00
2022-12-15T07:45:31.387Z,67.00
2022-12-15T07:48:14.482Z,65.10
2022-12-15T07:51:04.958Z,68.30
2022-12-15T07:53:51.572Z,66.40
2022-12-15T07:59:22.249Z,66.00
2022-12-15T08:02:07.422Z,71.10
2022-12-15T08:04:50.296Z,70.60
2022-12-15T08:07:33.241Z,71.90
2022-12-15T08:10:16.247Z,69.20
2022-12-15T08:13:01.187Z,71.10
2022-12-15T08:15:44.155Z,73.80
2022-12-15T08:18:28.132Z,73.80
2022-12-15T08:21:11.946Z,78.70
2022-12-15T08:23:55.197Z,78.50
2022-12-15T08:26:38.937Z,77.00
2022-12-15T08:32:24.887Z,79.20
2022-12-15T08:35:25.404Z,78.20
2022-12-15T08:38:11.984Z,74.00
2022-12-15T08:40:54.925Z,78.00
2022-12-15T08:46:34.396Z,81.10
2022-12-15T08:49:43.035Z,77.90
2022-12-15T08:53:21.389Z,73.80
2022-12-15T08:55:55.046Z,79.60
2022-12-15T08:58:38.285Z,82.50
2022-12-15T09:01:24.200Z,91.00
2022-12-15T09:04:08.933Z,87.50
2022-12-15T09:06:51.861Z,96.00
2022-12-15T09:09:39.331Z,85.90
2022-12-15T09:12:23.587Z,88.00
2022-12-15T09:15:06.908Z,87.40
2022-12-15T09:17:49.758Z,84.50
2022-12-15T09:23:16.731Z,83.90
2022-12-15T09:26:00.891Z,85.30
2022-12-15T09:28:44.162Z,82.50
2022-12-15T09:31:37.825Z,85.50
2022-12-15T09:34:20.811Z,85.00
2022-12-15T09:37:07.070Z,85.50
2022-12-15T09:39:53.004Z,91.50
2022-12-15T09:42:36.011Z,86.10
2022-12-15T09:48:16.228Z,84.30
2022-12-15T09:51:01.731Z,91.80
2022-12-15T09:53:55.373Z,88.90
2022-12-15T09:56:56.154Z,90.90
2022-12-15T10:00:00.889Z,89.40
2022-12-15T10:03:07.297Z,93.50
2022-12-15T10:09:30.430Z,88.00
2022-12-15T10:12:27.065Z,91.10
2022-12-15T10:15:23.558Z,85.00
2022-12-15T10:18:17.600Z,84.30
2022-12-15T10:21:02.543Z,87.90
2022-12-15T10:23:45.569Z,82.20
2022-12-15T10:26:35.221Z,87.40
2022-12-15T10:29:43.397Z,82.80
2022-12-15T10:32:42.750Z,82.40
2022-12-15T10:35:35.011Z,85.20
2022-12-15T10:38:25.782Z,88.80
2022-12-15T10:41:16.671Z,89.50
2022-12-15T10:43:59.646Z,88.20
2022-12-15T10:46:45.227Z,84.30
2022-12-15T10:49:30.476Z,86.90
2022-12-15T10:52:24.468Z,90.00
2022-12-15T10:55:36.881Z,89.00
2022-12-15T10:58:22.862Z,85.50
2022-12-15T11:01:16.056Z,80.10
2022-12-15T11:06:44.067Z,78.40
2022-12-15T11:09:39.424Z,74.80
2022-12-15T11:12:44.867Z,73.40
2022-12-15T11:15:40.148Z,72.20
2022-12-15T11:18:43.889Z,67.40
2022-12-15T11:21:33.450Z,69.30
2022-12-15T11:24:33.365Z,66.80
2022-12-15T11:27:33.970Z,67.00
2022-12-15T11:30:30.778Z,61.40
2022-12-15T11:33:14.560Z,60.80
2022-12-15T11:36:10.244Z,61.90
2022-12-15T11:39:04.024Z,57.90
2022-12-15T11:42:12.681Z,56.60
2022-12-15T11:45:17.444Z,58.10
2022-12-15T11:48:13.822Z,55.20
2022-12-15T11:51:05.337Z,55.30
2022-12-15T11:53:55.217Z,56.10
2022-12-15T11:56:42.660Z,52.70
2022-12-15T11:59:32.745Z,53.20
2022-12-15T12:02:15.553Z,48.50
2022-12-15T12:05:21.596Z,43.60
2022-12-15T12:08:33.219Z,40.60
2022-12-15T12:11:35.438Z,41.10
2022-12-15T12:14:36.589Z,43.30
2022-12-15T12:17:22.385Z,42.20
2022-12-15T12:20:17.125Z,41.60
2022-12-15T12:23:05.794Z,38.70
2022-12-15T12:26:03.160Z,46.70
2022-12-15T12:29:00.296Z,52.00
2022-12-15T12:32:12.171Z,49.40
2022-12-15T12:35:32.364Z,47.50
2022-12-15T12:38:20.466Z,52.20
2022-12-15T12:41:18.741Z,47.00
2022-12-15T12:44:21.127Z,49.70
2022-12-15T12:47:26.265Z,48.90
2022-12-15T12:50:22.499Z,44.20
2022-12-15T12:53:05.663Z,48.70
2022-12-15T12:55:48.552Z,44.70
2022-12-15T12:58:39.684Z,42.70
2022-12-15T13:01:35.593Z,44.60
2022-12-15T13:04:31.230Z,43.90
2022-12-15T13:07:41.019Z,41.70
2022-12-15T13:10:25.059Z,42.20
2022-12-15T13:13:33.931Z,42.30
2022-12-15T13:16:25.876Z,41.50
2022-12-15T13:19:09.513Z,40.80
2022-12-15T13:21:55.287Z,44.50
2022-12-15T13:24:50.799Z,41.30
2022-12-15T13:27:40.794Z,47.70
2022-12-15T13:30:24.332Z,43.10
2022-12-15T13:33:17.521Z,45.20
2022-12-15T13:36:00.904Z,41.80
2022-12-15T13:38:55.154Z,42.50
2022-12-15T13:42:00.290Z,42.30
2022-12-15T13:44:51.591Z,43.20
2022-12-15T13:47:34.741Z,42.50
2022-12-15T13:50:31.824Z,42.60
2022-12-15T13:53:21.040Z,44.80
2022-12-15T13:56:34.810Z,43.90
2022-12-15T13:59:33.254Z,45.20
2022-12-15T14:02:34.703Z,41.30
2022-12-15T14:05:22.225Z,42.20
2022-12-15T14:08:13.635Z,44.40
2022-12-15T14:11:00.192Z,47.50
2022-12-15T14:13:46.932Z,45.40
2022-12-15T14:16:35.474Z,45.50
2022-12-15T14:19:18.900Z,44.50
2022-12-15T14:22:01.637Z,44.60
2022-12-15T14:24:46.982Z,44.10
2022-12-15T14:27:34.049Z,41.70
2022-12-15T14:30:24.895Z,38.80
2022-12-15T14:33:11.770Z,39.20
2022-12-15T14:35:57.626Z,38.80
2022-12-15T14:38:51.132Z,37.50
2022-12-15T14:41:39.016Z,34.80
2022-12-15T14:44:39.083Z,34.20
2022-12-15T14:47:29.222Z,34.50
2022-12-15T14:50:12.908Z,34.00
2022-12-15T14:52:59.541Z,35.10
2022-12-15T14:55:42.473Z,36.10
2022-12-15T15:01:41.846Z,34.40
2022-12-15T15:03:09.637Z,89.60
2022-12-15T15:04:29.710Z,35.10
2022-12-15T15:07:18.797Z,33.70
2022-12-15T15:10:03.135Z,35.50
2022-12-15T15:12:47.420Z,38.30
2022-12-15T15:15:30.272Z,36.50
2022-12-15T15:21:03.349Z,37.50
2022-12-15T15:24:23.016Z,37.70
2022-12-15T15:27:39.520Z,35.70
2022-12-15T15:30:24.097Z,38.10
2022-12-15T15:33:08.929Z,39.30
2022-12-15T15:36:00.984Z,43.20
2022-12-15T15:38:52.223Z,36.30
2022-12-15T15:41:34.946Z,38.60
2022-12-15T15:47:00.978Z,42.00
2022-12-15T15:49:45.359Z,38.80
2022-12-15T15:52:29.781Z,36.40
2022-12-15T15:55:15.781Z,36.60
2022-12-15T15:57:58.507Z,35.90
2022-12-15T16:00:41.254Z,39.80
2022-12-15T16:03:24.429Z,36.90
2022-12-15T16:06:16.488Z,36.00
2022-12-15T16:08:59.854Z,39.90
2022-12-15T16:11:43.793Z,38.90
2022-12-15T16:14:26.484Z,38.10
2022-12-15T16:17:09.691Z,37.90
2022-12-15T16:19:52.414Z,39.30
2022-12-15T16:25:41.197Z,34.80
2022-12-15T16:28:28.826Z,36.90
2022-12-15T16:31:24.479Z,35.50
2022-12-15T16:34:07.342Z,36.30
2022-12-15T16:36:50.548Z,36.10
2022-12-15T16:39:35.299Z,38.70
2022-12-15T16:42:18.110Z,40.40
2022-12-15T16:47:45.356Z,38.10
2022-12-15T16:50:35.570Z,33.70
2022-12-15T16:53:23.378Z,34.80
2022-12-15T16:56:08.346Z,36.40
2022-12-15T16:58:57.512Z,35.10
2022-12-15T17:01:51.590Z,37.60
2022-12-15T17:04:34.571Z,35.70
2022-12-15T17:07:20.673Z,36.40
2022-12-15T17:10:04.611Z,35.60
2022-12-15T17:12:48.239Z,35.50
2022-12-15T17:15:31.008Z,39.80
2022-12-15T17:18:15.010Z,37.50
2022-12-15T17:21:13.480Z,38.80
2022-12-15T17:24:00.316Z,38.90
2022-12-15T17:26:44.753Z,38.00
2022-12-15T17:29:27.786Z,37.40
2022-12-15T17:32:12.779Z,39.70
2022-12-15T17:34:56.013Z,35.80
2022-12-15T17:37:40.343Z,33.10
2022-12-15T17:40:24.298Z,33.30
2022-12-15T17:43:13.533Z,34.50
2022-12-15T17:45:56.332Z,36.50
2022-12-15T17:48:39.198Z,34.40
2022-12-15T17:51:21.944Z,38.60
2022-12-15T17:54:04.807Z,39.00
2022-12-15T17:56:49.476Z,35.10
2022-12-15T17:59:32.580Z,34.80
2022-12-15T18:02:16.035Z,33.70
2022-12-15T18:04:59.654Z,34.20
2022-12-15T18:07:42.849Z,34.60
2022-12-15T18:10:33.188Z,34.10
2022-12-15T18:13:26.848Z,33.00
2022-12-15T18:16:13.243Z,35.30
2022-12-15T18:18:57.481Z,32.50
2022-12-15T18:21:41.274Z,33.20
2022-12-15T18:24:24.084Z,34.50
2022-12-15T18:30:02.501Z,35.10
2022-12-15T18:32:46.209Z,37.80
2022-12-15T18:35:40.048Z,33.80
2022-12-15T18:38:26.392Z,38.70
2022-12-15T18:41:14.147Z,39.50
2022-12-15T18:43:59.028Z,40.00
2022-12-15T18:46:46.282Z,34.90
2022-12-15T18:49:31.146Z,41.80
2022-12-15T18:55:01.357Z,42.30
2022-12-15T18:57:44.626Z,41.40
2022-12-15T19:00:30.620Z,39.40
2022-12-15T19:03:13.689Z,44.50
2022-12-15T19:06:14.529Z,39.90
2022-12-15T19:08:57.304Z,39.60
2022-12-15T19:11:40.452Z,39.40
2022-12-15T19:14:43.176Z,47.40
2022-12-15T19:17:44.863Z,45.00
2022-12-15T19:20:47.814Z,46.90
2022-12-15T19:23:31.127Z,50.30
2022-12-15T19:26:14.176Z,48.20
2022-12-15T19:28:56.955Z,46.30
2022-12-15T19:31:39.870Z,46.60
2022-12-15T19:37:10.420Z,48.30
2022-12-15T19:39:55.466Z,47.30
2022-12-15T19:42:38.319Z,44.60
2022-12-15T19:48:06.525Z,48.40
2022-12-15T19:50:51.827Z,50.90
2022-12-15T19:53:36.283Z,48.00
2022-12-15T19:56:23.633Z,47.70
2022-12-15T19:59:16.179Z,49.70
2022-12-15T20:01:59.150Z,52.00
2022-12-15T20:04:42.069Z,56.90
2022-12-15T20:07:33.300Z,58.40
2022-12-15T20:10:26.004Z,63.00
2022-12-15T20:13:13.989Z,61.10
2022-12-15T20:15:56.780Z,58.40
2022-12-15T20:18:40.612Z,64.10
2022-12-15T20:21:31.571Z,61.50
2022-12-15T20:24:17.426Z,61.40
2022-12-15T20:27:00.616Z,61.50
2022-12-15T20:29:45.061Z,60.10
2022-12-15T20:32:27.810Z,59.70
2022-12-15T20:35:14.525Z,58.90
2022-12-15T20:37:57.591Z,60.80
2022-12-15T20:40:40.285Z,66.00
2022-12-15T20:43:24.475Z,62.30
2022-12-15T20:46:13.349Z,74.60
2022-12-15T20:48:56.518Z,70.40
2022-12-15T20:51:39.219Z,79.50
2022-12-15T20:54:23.065Z,78.70
2022-12-15T20:57:07.415Z,89.40
2022-12-15T20:59:50.125Z,101.60
2022-12-15T21:02:33.239Z,105.10
2022-12-15T21:05:22.688Z,96.90
2022-12-15T21:08:21.177Z,106.40
2022-12-15T21:11:25.992Z,109.90
2022-12-15T21:14:17.588Z,106.80
2022-12-15T21:17:00.376Z,116.00
2022-12-15T21:22:27.783Z,118.40
2022-12-15T21:25:25.116Z,119.10
2022-12-15T21:28:11.840Z,118.70
2022-12-15T21:30:54.638Z,110.20
2022-12-15T21:33:37.757Z,110.40
2022-12-15T21:36:21.611Z,111.70
2022-12-15T21:39:06.939Z,114.60
2022-12-15T21:41:49.767Z,110.50
2022-12-15T21:44:33.193Z,112.70
2022-12-15T21:47:49.331Z,120.90
2022-12-15T21:50:32.741Z,118.80
2022-12-15T21:53:17.501Z,133.80
2022-12-15T21:56:01.690Z,139.50
2022-12-15T21:58:46.215Z,140.00
2022-12-15T22:01:31.005Z,139.40
2022-12-15T22:04:25.361Z,135.30
2022-12-15T22:07:14.351Z,128.20
2022-12-15T22:09:57.260Z,123.00
2022-12-15T22:15:24.029Z,124.00
2022-12-15T22:18:14.006Z,121.10
2022-12-15T22:20:56.741Z,113.40
2022-12-15T22:23:39.591Z,111.50
2022-12-15T22:29:16.537Z,106.40
2022-12-15T22:31:59.408Z,102.00
2022-12-15T22:34:42.706Z,97.10
2022-12-15T22:37:25.521Z,95.10
2022-12-15T22:42:57.704Z,82.20
2022-12-15T22:45:42.720Z,84.60
2022-12-15T22:48:31.494Z,89.60
2022-12-15T22:51:16.311Z,85.10
2022-12-15T22:53:59.057Z,82.90
2022-12-15T22:59:30.117Z,93.40
2022-12-15T23:02:12.900Z,84.50
2022-12-15T23:04:55.946Z,91.70
2022-12-15T23:07:38.922Z,96.20
2022-12-15T23:10:40.304Z,93.40
2022-12-15T23:13:23.109Z,88.10
2022-12-15T23:19:08.272Z,88.20
2022-12-15T23:21:52.243Z,94.90
2022-12-15T23:24:35.136Z,90.30
2022-12-15T23:30:00.738Z,76.40
2022-12-15T23:35:26.292Z,73.60
2022-12-15T23:40:53.848Z,74.40
2022-12-15T23:43:37.987Z,75.40
2022-12-15T23:46:21.492Z,72.70
2022-12-15T23:49:04.432Z,74.50
2022-12-15T23:54:31.181Z,66.20
2022-12-15T23:57:13.997Z,69.50
